sensor_id;sensor_type;location;lat;lon;timestamp;P1;durP1;ratioP1;P2;durP2;ratioP2
81160;SDS011;70637;48.514;14.500;2023-06-22T00:01:58;7.63;;;3.03;;
81160;SDS011;70637;48.514;14.500;2023-06-22T00:04:24;5.10;;;3.15;;
81160;SDS011;70637;48.514;14.500;2023-06-22T00:06:50;7.30;;;2.80;;
81160;SDS011;70637;48.514;14.500;2023-06-22T00:09:16;6.03;;;2.88;;
81160;SDS011;70637;48.514;14.500;2023-06-22T00:11:41;6.40;;;2.78;;
81160;SDS011;70637;48.514;14.500;2023-06-22T00:14:07;4.47;;;2.67;;
81160;SDS011;70637;48.514;14.500;2023-06-22T00:16:32;5.70;;;2.80;;
81160;SDS011;70637;48.514;14.500;2023-06-22T00:18:58;6.60;;;2.80;;
81160;SDS011;70637;48.514;14.500;2023-06-22T00:21:26;8.27;;;2.47;;
81160;SDS011;70637;48.514;14.500;2023-06-22T00:23:52;5.32;;;2.80;;
81160;SDS011;70637;48.514;14.500;2023-06-22T00:26:17;5.35;;;3.08;;
81160;SDS011;70637;48.514;14.500;2023-06-22T00:28:43;4.85;;;2.70;;
81160;SDS011;70637;48.514;14.500;2023-06-22T00:31:09;6.38;;;2.90;;
81160;SDS011;70637;48.514;14.500;2023-06-22T00:33:35;6.68;;;2.65;;
81160;SDS011;70637;48.514;14.500;2023-06-22T00:36:00;5.32;;;2.95;;
81160;SDS011;70637;48.514;14.500;2023-06-22T00:38:28;4.57;;;2.65;;
81160;SDS011;70637;48.514;14.500;2023-06-22T00:40:54;6.10;;;2.75;;
81160;SDS011;70637;48.514;14.500;2023-06-22T00:43:19;5.60;;;2.70;;
81160;SDS011;70637;48.514;14.500;2023-06-22T00:45:45;7.47;;;3.13;;
81160;SDS011;70637;48.514;14.500;2023-06-22T00:48:11;7.50;;;3.05;;
81160;SDS011;70637;48.514;14.500;2023-06-22T00:50:38;5.00;;;2.80;;
81160;SDS011;70637;48.514;14.500;2023-06-22T00:53:06;6.10;;;2.70;;
81160;SDS011;70637;48.514;14.500;2023-06-22T00:55:42;5.43;;;2.72;;
81160;SDS011;70637;48.514;14.500;2023-06-22T00:58:10;4.43;;;2.72;;
81160;SDS011;70637;48.514;14.500;2023-06-22T01:00:37;6.28;;;2.70;;
81160;SDS011;70637;48.514;14.500;2023-06-22T01:03:03;7.80;;;2.80;;
81160;SDS011;70637;48.514;14.500;2023-06-22T01:05:34;6.35;;;3.05;;
81160;SDS011;70637;48.514;14.500;2023-06-22T01:11:03;6.93;;;2.95;;
81160;SDS011;70637;48.514;14.500;2023-06-22T01:14:00;5.43;;;2.80;;
81160;SDS011;70637;48.514;14.500;2023-06-22T01:16:40;5.65;;;3.28;;
81160;SDS011;70637;48.514;14.500;2023-06-22T01:19:35;5.37;;;2.90;;
81160;SDS011;70637;48.514;14.500;2023-06-22T01:22:10;5.65;;;2.70;;
81160;SDS011;70637;48.514;14.500;2023-06-22T01:27:53;5.82;;;2.70;;
81160;SDS011;70637;48.514;14.500;2023-06-22T01:30:28;8.38;;;2.80;;
81160;SDS011;70637;48.514;14.500;2023-06-22T01:32:57;6.60;;;2.88;;
81160;SDS011;70637;48.514;14.500;2023-06-22T01:37:53;6.03;;;3.00;;
81160;SDS011;70637;48.514;14.500;2023-06-22T01:40:20;6.97;;;3.28;;
81160;SDS011;70637;48.514;14.500;2023-06-22T01:42:46;6.20;;;2.90;;
81160;SDS011;70637;48.514;14.500;2023-06-22T01:45:13;4.38;;;2.70;;
81160;SDS011;70637;48.514;14.500;2023-06-22T01:47:40;4.53;;;2.60;;
81160;SDS011;70637;48.514;14.500;2023-06-22T01:50:06;6.20;;;2.80;;
81160;SDS011;70637;48.514;14.500;2023-06-22T01:52:33;8.50;;;3.25;;
81160;SDS011;70637;48.514;14.500;2023-06-22T01:54:59;4.18;;;2.80;;
81160;SDS011;70637;48.514;14.500;2023-06-22T01:57:26;6.93;;;2.70;;
81160;SDS011;70637;48.514;14.500;2023-06-22T02:00:05;5.00;;;2.85;;
81160;SDS011;70637;48.514;14.500;2023-06-22T02:02:54;7.15;;;3.10;;
81160;SDS011;70637;48.514;14.500;2023-06-22T02:05:25;7.63;;;3.00;;
81160;SDS011;70637;48.514;14.500;2023-06-22T02:08:09;6.03;;;3.17;;
81160;SDS011;70637;48.514;14.500;2023-06-22T02:10:46;8.17;;;3.10;;
81160;SDS011;70637;48.514;14.500;2023-06-22T02:13:13;5.90;;;2.92;;
81160;SDS011;70637;48.514;14.500;2023-06-22T02:15:39;5.78;;;2.90;;
81160;SDS011;70637;48.514;14.500;2023-06-22T02:18:05;6.90;;;3.25;;
81160;SDS011;70637;48.514;14.500;2023-06-22T02:20:31;6.80;;;3.72;;
81160;SDS011;70637;48.514;14.500;2023-06-22T02:22:57;7.20;;;4.25;;
81160;SDS011;70637;48.514;14.500;2023-06-22T02:25:23;7.43;;;4.82;;
81160;SDS011;70637;48.514;14.500;2023-06-22T02:27:49;9.38;;;5.80;;
81160;SDS011;70637;48.514;14.500;2023-06-22T02:30:14;11.05;;;6.38;;
81160;SDS011;70637;48.514;14.500;2023-06-22T02:32:41;10.32;;;6.47;;
81160;SDS011;70637;48.514;14.500;2023-06-22T02:35:07;12.77;;;7.45;;
81160;SDS011;70637;48.514;14.500;2023-06-22T02:37:37;13.40;;;7.45;;
81160;SDS011;70637;48.514;14.500;2023-06-22T02:40:07;13.15;;;7.90;;
81160;SDS011;70637;48.514;14.500;2023-06-22T02:42:34;12.35;;;7.63;;
81160;SDS011;70637;48.514;14.500;2023-06-22T02:45:00;11.68;;;7.45;;
81160;SDS011;70637;48.514;14.500;2023-06-22T02:47:26;10.82;;;7.60;;
81160;SDS011;70637;48.514;14.500;2023-06-22T02:49:52;13.20;;;7.43;;
81160;SDS011;70637;48.514;14.500;2023-06-22T02:52:18;12.00;;;6.90;;
81160;SDS011;70637;48.514;14.500;2023-06-22T02:54:43;10.77;;;6.60;;
81160;SDS011;70637;48.514;14.500;2023-06-22T02:57:11;9.38;;;5.70;;
81160;SDS011;70637;48.514;14.500;2023-06-22T02:59:38;9.07;;;5.85;;
81160;SDS011;70637;48.514;14.500;2023-06-22T03:02:06;8.35;;;5.55;;
81160;SDS011;70637;48.514;14.500;2023-06-22T03:04:33;9.52;;;5.45;;
81160;SDS011;70637;48.514;14.500;2023-06-22T03:06:59;8.88;;;4.80;;
81160;SDS011;70637;48.514;14.500;2023-06-22T03:09:26;9.15;;;4.72;;
81160;SDS011;70637;48.514;14.500;2023-06-22T03:11:52;6.10;;;4.00;;
81160;SDS011;70637;48.514;14.500;2023-06-22T03:14:19;7.55;;;3.95;;
81160;SDS011;70637;48.514;14.500;2023-06-22T03:16:45;7.45;;;4.00;;
81160;SDS011;70637;48.514;14.500;2023-06-22T03:19:10;8.98;;;3.75;;
81160;SDS011;70637;48.514;14.500;2023-06-22T03:21:36;6.40;;;3.67;;
81160;SDS011;70637;48.514;14.500;2023-06-22T03:24:03;9.90;;;4.00;;
81160;SDS011;70637;48.514;14.500;2023-06-22T03:26:30;10.32;;;3.58;;
81160;SDS011;70637;48.514;14.500;2023-06-22T03:28:55;5.53;;;3.38;;
81160;SDS011;70637;48.514;14.500;2023-06-22T03:31:21;7.45;;;3.78;;
81160;SDS011;70637;48.514;14.500;2023-06-22T03:33:48;5.45;;;3.60;;
81160;SDS011;70637;48.514;14.500;2023-06-22T03:36:14;7.65;;;3.30;;
81160;SDS011;70637;48.514;14.500;2023-06-22T03:38:50;4.90;;;2.78;;
81160;SDS011;70637;48.514;14.500;2023-06-22T03:41:16;6.22;;;3.30;;
81160;SDS011;70637;48.514;14.500;2023-06-22T03:43:42;8.10;;;3.30;;
81160;SDS011;70637;48.514;14.500;2023-06-22T03:46:08;5.43;;;3.15;;
81160;SDS011;70637;48.514;14.500;2023-06-22T03:48:34;6.53;;;3.42;;
81160;SDS011;70637;48.514;14.500;2023-06-22T03:50:59;5.50;;;3.15;;
81160;SDS011;70637;48.514;14.500;2023-06-22T03:53:26;7.63;;;3.30;;
81160;SDS011;70637;48.514;14.500;2023-06-22T03:55:52;7.60;;;3.78;;
81160;SDS011;70637;48.514;14.500;2023-06-22T03:58:18;7.25;;;3.70;;
81160;SDS011;70637;48.514;14.500;2023-06-22T04:00:48;5.88;;;3.80;;
81160;SDS011;70637;48.514;14.500;2023-06-22T04:05:43;6.50;;;4.07;;
81160;SDS011;70637;48.514;14.500;2023-06-22T04:08:09;7.45;;;4.63;;
81160;SDS011;70637;48.514;14.500;2023-06-22T04:10:35;7.22;;;4.30;;
81160;SDS011;70637;48.514;14.500;2023-06-22T04:13:03;6.93;;;4.30;;
81160;SDS011;70637;48.514;14.500;2023-06-22T04:15:29;7.63;;;4.13;;
81160;SDS011;70637;48.514;14.500;2023-06-22T04:17:55;7.18;;;4.13;;
81160;SDS011;70637;48.514;14.500;2023-06-22T04:20:21;6.60;;;3.97;;
81160;SDS011;70637;48.514;14.500;2023-06-22T04:22:47;7.15;;;4.00;;
81160;SDS011;70637;48.514;14.500;2023-06-22T04:25:12;8.45;;;3.85;;
81160;SDS011;70637;48.514;14.500;2023-06-22T04:27:39;11.27;;;3.78;;
81160;SDS011;70637;48.514;14.500;2023-06-22T04:30:06;7.00;;;3.95;;
81160;SDS011;70637;48.514;14.500;2023-06-22T04:32:33;8.77;;;3.63;;
81160;SDS011;70637;48.514;14.500;2023-06-22T04:35:01;7.45;;;3.80;;
81160;SDS011;70637;48.514;14.500;2023-06-22T04:37:31;5.25;;;3.35;;
81160;SDS011;70637;48.514;14.500;2023-06-22T04:39:57;6.90;;;3.53;;
81160;SDS011;70637;48.514;14.500;2023-06-22T04:42:22;7.18;;;3.72;;
81160;SDS011;70637;48.514;14.500;2023-06-22T04:44:48;8.82;;;3.63;;
81160;SDS011;70637;48.514;14.500;2023-06-22T04:47:14;7.50;;;3.35;;
81160;SDS011;70637;48.514;14.500;2023-06-22T04:49:39;6.43;;;3.25;;
81160;SDS011;70637;48.514;14.500;2023-06-22T04:52:08;9.10;;;3.50;;
81160;SDS011;70637;48.514;14.500;2023-06-22T04:54:35;7.97;;;3.20;;
81160;SDS011;70637;48.514;14.500;2023-06-22T04:57:03;7.15;;;3.97;;
81160;SDS011;70637;48.514;14.500;2023-06-22T04:59:30;8.68;;;3.50;;
81160;SDS011;70637;48.514;14.500;2023-06-22T05:01:56;9.93;;;3.50;;
81160;SDS011;70637;48.514;14.500;2023-06-22T05:04:23;9.15;;;3.85;;
81160;SDS011;70637;48.514;14.500;2023-06-22T05:06:49;7.70;;;3.40;;
81160;SDS011;70637;48.514;14.500;2023-06-22T05:09:16;5.75;;;3.10;;
81160;SDS011;70637;48.514;14.500;2023-06-22T05:11:42;6.63;;;3.10;;
81160;SDS011;70637;48.514;14.500;2023-06-22T05:14:08;9.48;;;3.45;;
81160;SDS011;70637;48.514;14.500;2023-06-22T05:16:36;9.30;;;3.20;;
81160;SDS011;70637;48.514;14.500;2023-06-22T05:19:02;8.90;;;3.30;;
81160;SDS011;70637;48.514;14.500;2023-06-22T05:21:29;6.38;;;3.10;;
81160;SDS011;70637;48.514;14.500;2023-06-22T05:23:55;9.30;;;3.17;;
81160;SDS011;70637;48.514;14.500;2023-06-22T05:26:25;8.15;;;3.28;;
81160;SDS011;70637;48.514;14.500;2023-06-22T05:28:51;6.30;;;3.22;;
81160;SDS011;70637;48.514;14.500;2023-06-22T05:31:18;6.47;;;3.55;;
81160;SDS011;70637;48.514;14.500;2023-06-22T05:33:47;8.75;;;3.53;;
81160;SDS011;70637;48.514;14.500;2023-06-22T05:36:14;6.80;;;3.53;;
81160;SDS011;70637;48.514;14.500;2023-06-22T05:38:40;9.45;;;3.70;;
81160;SDS011;70637;48.514;14.500;2023-06-22T05:41:06;5.57;;;3.60;;
81160;SDS011;70637;48.514;14.500;2023-06-22T05:43:32;9.18;;;4.32;;
81160;SDS011;70637;48.514;14.500;2023-06-22T05:45:59;7.85;;;3.70;;
81160;SDS011;70637;48.514;14.500;2023-06-22T05:48:26;14.40;;;5.45;;
81160;SDS011;70637;48.514;14.500;2023-06-22T05:50:52;16.30;;;5.43;;
81160;SDS011;70637;48.514;14.500;2023-06-22T05:53:18;15.85;;;5.55;;
81160;SDS011;70637;48.514;14.500;2023-06-22T05:55:44;23.63;;;6.88;;
81160;SDS011;70637;48.514;14.500;2023-06-22T05:58:09;24.40;;;8.02;;
81160;SDS011;70637;48.514;14.500;2023-06-22T06:00:35;31.02;;;7.95;;
81160;SDS011;70637;48.514;14.500;2023-06-22T06:03:01;32.03;;;8.10;;
81160;SDS011;70637;48.514;14.500;2023-06-22T06:05:30;24.92;;;7.47;;
81160;SDS011;70637;48.514;14.500;2023-06-22T06:07:56;26.60;;;8.20;;
81160;SDS011;70637;48.514;14.500;2023-06-22T06:10:22;32.00;;;7.72;;
81160;SDS011;70637;48.514;14.500;2023-06-22T06:12:47;24.77;;;7.80;;
81160;SDS011;70637;48.514;14.500;2023-06-22T06:15:13;32.03;;;8.15;;
81160;SDS011;70637;48.514;14.500;2023-06-22T06:17:46;22.48;;;7.65;;
81160;SDS011;70637;48.514;14.500;2023-06-22T06:20:12;21.13;;;7.13;;
81160;SDS011;70637;48.514;14.500;2023-06-22T06:22:38;18.25;;;6.32;;
81160;SDS011;70637;48.514;14.500;2023-06-22T06:25:04;18.35;;;6.53;;
81160;SDS011;70637;48.514;14.500;2023-06-22T06:27:30;18.48;;;6.60;;
81160;SDS011;70637;48.514;14.500;2023-06-22T06:29:56;18.65;;;6.68;;
81160;SDS011;70637;48.514;14.500;2023-06-22T06:32:22;16.33;;;6.45;;
81160;SDS011;70637;48.514;14.500;2023-06-22T06:34:47;15.65;;;5.78;;
81160;SDS011;70637;48.514;14.500;2023-06-22T06:37:13;18.52;;;5.90;;
81160;SDS011;70637;48.514;14.500;2023-06-22T06:39:39;14.68;;;5.65;;
81160;SDS011;70637;48.514;14.500;2023-06-22T06:42:04;14.90;;;5.60;;
81160;SDS011;70637;48.514;14.500;2023-06-22T06:44:30;15.80;;;5.50;;
81160;SDS011;70637;48.514;14.500;2023-06-22T06:46:56;15.13;;;6.15;;
81160;SDS011;70637;48.514;14.500;2023-06-22T06:49:22;14.55;;;5.88;;
81160;SDS011;70637;48.514;14.500;2023-06-22T06:51:47;10.52;;;5.63;;
81160;SDS011;70637;48.514;14.500;2023-06-22T06:54:13;13.63;;;5.18;;
81160;SDS011;70637;48.514;14.500;2023-06-22T06:56:38;10.57;;;4.80;;
81160;SDS011;70637;48.514;14.500;2023-06-22T06:59:04;10.57;;;4.68;;
81160;SDS011;70637;48.514;14.500;2023-06-22T07:01:30;12.20;;;4.95;;
81160;SDS011;70637;48.514;14.500;2023-06-22T07:03:59;10.50;;;4.75;;
81160;SDS011;70637;48.514;14.500;2023-06-22T07:06:25;11.88;;;4.95;;
81160;SDS011;70637;48.514;14.500;2023-06-22T07:08:54;12.95;;;5.60;;
81160;SDS011;70637;48.514;14.500;2023-06-22T07:11:20;8.10;;;4.60;;
81160;SDS011;70637;48.514;14.500;2023-06-22T07:13:46;10.63;;;4.65;;
81160;SDS011;70637;48.514;14.500;2023-06-22T07:16:14;7.75;;;4.63;;
81160;SDS011;70637;48.514;14.500;2023-06-22T07:18:39;8.45;;;4.70;;
81160;SDS011;70637;48.514;14.500;2023-06-22T07:21:05;8.13;;;4.38;;
81160;SDS011;70637;48.514;14.500;2023-06-22T07:23:32;7.28;;;4.25;;
81160;SDS011;70637;48.514;14.500;2023-06-22T07:25:58;9.63;;;4.75;;
81160;SDS011;70637;48.514;14.500;2023-06-22T07:28:26;7.60;;;4.30;;
81160;SDS011;70637;48.514;14.500;2023-06-22T07:30:52;8.25;;;3.92;;
81160;SDS011;70637;48.514;14.500;2023-06-22T07:33:18;9.82;;;4.45;;
81160;SDS011;70637;48.514;14.500;2023-06-22T07:35:44;7.90;;;4.07;;
81160;SDS011;70637;48.514;14.500;2023-06-22T07:38:11;8.65;;;4.22;;
81160;SDS011;70637;48.514;14.500;2023-06-22T07:40:39;7.30;;;4.13;;
81160;SDS011;70637;48.514;14.500;2023-06-22T07:43:06;9.50;;;4.07;;
81160;SDS011;70637;48.514;14.500;2023-06-22T07:45:32;7.47;;;4.60;;
81160;SDS011;70637;48.514;14.500;2023-06-22T07:47:59;9.13;;;4.50;;
81160;SDS011;70637;48.514;14.500;2023-06-22T07:50:26;10.40;;;4.40;;
81160;SDS011;70637;48.514;14.500;2023-06-22T07:52:51;7.53;;;4.50;;
81160;SDS011;70637;48.514;14.500;2023-06-22T07:55:18;7.20;;;4.38;;
81160;SDS011;70637;48.514;14.500;2023-06-22T07:57:43;7.93;;;4.22;;
81160;SDS011;70637;48.514;14.500;2023-06-22T08:00:12;8.57;;;4.65;;
81160;SDS011;70637;48.514;14.500;2023-06-22T08:02:42;10.75;;;5.00;;
81160;SDS011;70637;48.514;14.500;2023-06-22T08:05:09;8.35;;;4.15;;
81160;SDS011;70637;48.514;14.500;2023-06-22T08:07:36;8.07;;;4.68;;
81160;SDS011;70637;48.514;14.500;2023-06-22T08:10:03;6.93;;;4.50;;
81160;SDS011;70637;48.514;14.500;2023-06-22T08:12:35;7.18;;;4.10;;
81160;SDS011;70637;48.514;14.500;2023-06-22T08:15:00;8.60;;;4.50;;
81160;SDS011;70637;48.514;14.500;2023-06-22T08:17:26;6.63;;;4.40;;
81160;SDS011;70637;48.514;14.500;2023-06-22T08:19:51;9.32;;;4.60;;
81160;SDS011;70637;48.514;14.500;2023-06-22T08:22:17;10.23;;;4.78;;
81160;SDS011;70637;48.514;14.500;2023-06-22T08:24:43;8.10;;;4.82;;
81160;SDS011;70637;48.514;14.500;2023-06-22T08:27:10;12.43;;;5.25;;
81160;SDS011;70637;48.514;14.500;2023-06-22T08:29:39;11.18;;;4.80;;
81160;SDS011;70637;48.514;14.500;2023-06-22T08:32:07;18.85;;;5.53;;
81160;SDS011;70637;48.514;14.500;2023-06-22T08:34:37;11.95;;;5.25;;
81160;SDS011;70637;48.514;14.500;2023-06-22T08:37:07;13.02;;;5.32;;
81160;SDS011;70637;48.514;14.500;2023-06-22T08:39:33;12.50;;;4.88;;
81160;SDS011;70637;48.514;14.500;2023-06-22T08:41:59;12.77;;;5.25;;
81160;SDS011;70637;48.514;14.500;2023-06-22T08:44:25;12.50;;;4.97;;
81160;SDS011;70637;48.514;14.500;2023-06-22T08:46:50;11.50;;;5.30;;
81160;SDS011;70637;48.514;14.500;2023-06-22T08:49:16;11.98;;;4.88;;
81160;SDS011;70637;48.514;14.500;2023-06-22T08:51:41;11.75;;;4.57;;
81160;SDS011;70637;48.514;14.500;2023-06-22T08:54:09;17.15;;;4.88;;
81160;SDS011;70637;48.514;14.500;2023-06-22T08:56:35;9.35;;;4.93;;
81160;SDS011;70637;48.514;14.500;2023-06-22T08:59:01;9.68;;;4.47;;
81160;SDS011;70637;48.514;14.500;2023-06-22T09:01:27;13.77;;;4.63;;
81160;SDS011;70637;48.514;14.500;2023-06-22T09:03:52;12.60;;;4.60;;
81160;SDS011;70637;48.514;14.500;2023-06-22T09:06:23;9.05;;;4.70;;
81160;SDS011;70637;48.514;14.500;2023-06-22T09:08:49;10.65;;;4.53;;
81160;SDS011;70637;48.514;14.500;2023-06-22T09:11:14;12.60;;;4.97;;
81160;SDS011;70637;48.514;14.500;2023-06-22T09:13:40;12.25;;;5.05;;
81160;SDS011;70637;48.514;14.500;2023-06-22T09:16:08;14.13;;;5.07;;
81160;SDS011;70637;48.514;14.500;2023-06-22T09:18:34;15.38;;;4.47;;
81160;SDS011;70637;48.514;14.500;2023-06-22T09:21:01;10.57;;;4.93;;
81160;SDS011;70637;48.514;14.500;2023-06-22T09:23:27;14.38;;;5.05;;
81160;SDS011;70637;48.514;14.500;2023-06-22T09:25:52;12.20;;;5.05;;
81160;SDS011;70637;48.514;14.500;2023-06-22T09:28:18;11.73;;;4.80;;
81160;SDS011;70637;48.514;14.500;2023-06-22T09:30:44;14.57;;;5.22;;
81160;SDS011;70637;48.514;14.500;2023-06-22T09:33:09;16.10;;;4.93;;
81160;SDS011;70637;48.514;14.500;2023-06-22T09:35:35;10.13;;;4.80;;
81160;SDS011;70637;48.514;14.500;2023-06-22T09:38:01;11.82;;;4.50;;
81160;SDS011;70637;48.514;14.500;2023-06-22T09:40:26;12.55;;;4.63;;
81160;SDS011;70637;48.514;14.500;2023-06-22T09:42:52;9.57;;;5.07;;
81160;SDS011;70637;48.514;14.500;2023-06-22T09:45:18;12.70;;;4.90;;
81160;SDS011;70637;48.514;14.500;2023-06-22T09:47:43;12.27;;;4.97;;
81160;SDS011;70637;48.514;14.500;2023-06-22T09:50:09;11.55;;;5.32;;
81160;SDS011;70637;48.514;14.500;2023-06-22T09:52:35;11.93;;;4.72;;
81160;SDS011;70637;48.514;14.500;2023-06-22T09:55:00;12.75;;;5.30;;
81160;SDS011;70637;48.514;14.500;2023-06-22T09:57:28;12.60;;;5.07;;
81160;SDS011;70637;48.514;14.500;2023-06-22T09:59:54;15.98;;;4.95;;
81160;SDS011;70637;48.514;14.500;2023-06-22T10:02:20;10.93;;;4.60;;
81160;SDS011;70637;48.514;14.500;2023-06-22T10:04:47;11.90;;;4.75;;
81160;SDS011;70637;48.514;14.500;2023-06-22T10:07:13;10.85;;;4.75;;
81160;SDS011;70637;48.514;14.500;2023-06-22T10:09:38;8.35;;;5.18;;
81160;SDS011;70637;48.514;14.500;2023-06-22T10:12:04;11.77;;;5.22;;
81160;SDS011;70637;48.514;14.500;2023-06-22T10:14:30;13.05;;;5.22;;
81160;SDS011;70637;48.514;14.500;2023-06-22T10:16:55;18.85;;;5.10;;
81160;SDS011;70637;48.514;14.500;2023-06-22T10:19:21;13.10;;;4.60;;
81160;SDS011;70637;48.514;14.500;2023-06-22T10:21:46;16.67;;;5.35;;
81160;SDS011;70637;48.514;14.500;2023-06-22T10:24:12;12.77;;;5.20;;
81160;SDS011;70637;48.514;14.500;2023-06-22T10:26:38;12.45;;;5.03;;
81160;SDS011;70637;48.514;14.500;2023-06-22T10:29:03;9.38;;;4.70;;
81160;SDS011;70637;48.514;14.500;2023-06-22T10:31:29;9.70;;;4.75;;
81160;SDS011;70637;48.514;14.500;2023-06-22T10:33:55;13.27;;;5.55;;
81160;SDS011;70637;48.514;14.500;2023-06-22T10:36:21;15.93;;;5.63;;
81160;SDS011;70637;48.514;14.500;2023-06-22T10:38:47;15.68;;;5.07;;
81160;SDS011;70637;48.514;14.500;2023-06-22T10:41:13;19.50;;;5.60;;
81160;SDS011;70637;48.514;14.500;2023-06-22T10:43:39;11.95;;;5.00;;
81160;SDS011;70637;48.514;14.500;2023-06-22T10:46:06;16.40;;;5.00;;
81160;SDS011;70637;48.514;14.500;2023-06-22T10:48:32;13.98;;;5.22;;
81160;SDS011;70637;48.514;14.500;2023-06-22T10:50:57;13.77;;;5.00;;
81160;SDS011;70637;48.514;14.500;2023-06-22T10:53:23;12.75;;;5.50;;
81160;SDS011;70637;48.514;14.500;2023-06-22T10:55:48;11.50;;;4.45;;
81160;SDS011;70637;48.514;14.500;2023-06-22T10:58:14;11.57;;;4.75;;
81160;SDS011;70637;48.514;14.500;2023-06-22T11:00:40;13.88;;;4.80;;
81160;SDS011;70637;48.514;14.500;2023-06-22T11:03:06;9.88;;;4.47;;
81160;SDS011;70637;48.514;14.500;2023-06-22T11:05:31;12.32;;;5.28;;
81160;SDS011;70637;48.514;14.500;2023-06-22T11:07:57;11.30;;;4.90;;
81160;SDS011;70637;48.514;14.500;2023-06-22T11:10:23;12.25;;;4.55;;
81160;SDS011;70637;48.514;14.500;2023-06-22T11:12:48;15.63;;;4.93;;
81160;SDS011;70637;48.514;14.500;2023-06-22T11:15:14;9.48;;;4.70;;
81160;SDS011;70637;48.514;14.500;2023-06-22T11:17:40;14.65;;;5.00;;
81160;SDS011;70637;48.514;14.500;2023-06-22T11:20:06;10.95;;;4.72;;
81160;SDS011;70637;48.514;14.500;2023-06-22T11:22:36;13.85;;;4.50;;
81160;SDS011;70637;48.514;14.500;2023-06-22T11:25:04;12.38;;;4.88;;
81160;SDS011;70637;48.514;14.500;2023-06-22T11:27:31;9.48;;;4.35;;
81160;SDS011;70637;48.514;14.500;2023-06-22T11:29:56;10.25;;;5.25;;
81160;SDS011;70637;48.514;14.500;2023-06-22T11:32:25;10.63;;;4.00;;
81160;SDS011;70637;48.514;14.500;2023-06-22T11:34:53;13.35;;;4.38;;
81160;SDS011;70637;48.514;14.500;2023-06-22T11:37:19;13.55;;;4.80;;
81160;SDS011;70637;48.514;14.500;2023-06-22T11:39:44;9.52;;;4.38;;
81160;SDS011;70637;48.514;14.500;2023-06-22T11:42:10;15.32;;;5.05;;
81160;SDS011;70637;48.514;14.500;2023-06-22T11:44:36;11.35;;;4.75;;
81160;SDS011;70637;48.514;14.500;2023-06-22T11:47:02;10.27;;;4.75;;
81160;SDS011;70637;48.514;14.500;2023-06-22T11:49:29;10.73;;;4.43;;
81160;SDS011;70637;48.514;14.500;2023-06-22T11:51:55;14.23;;;4.68;;
81160;SDS011;70637;48.514;14.500;2023-06-22T11:54:21;10.48;;;4.40;;
81160;SDS011;70637;48.514;14.500;2023-06-22T11:56:47;13.38;;;5.10;;
81160;SDS011;70637;48.514;14.500;2023-06-22T11:59:12;11.40;;;4.80;;
81160;SDS011;70637;48.514;14.500;2023-06-22T12:01:38;13.23;;;5.03;;
81160;SDS011;70637;48.514;14.500;2023-06-22T12:04:04;11.43;;;4.57;;
81160;SDS011;70637;48.514;14.500;2023-06-22T12:06:35;11.30;;;4.75;;
81160;SDS011;70637;48.514;14.500;2023-06-22T12:09:03;12.35;;;4.63;;
81160;SDS011;70637;48.514;14.500;2023-06-22T12:11:32;14.88;;;4.57;;
81160;SDS011;70637;48.514;14.500;2023-06-22T12:13:57;12.40;;;4.40;;
81160;SDS011;70637;48.514;14.500;2023-06-22T12:16:26;14.52;;;4.82;;
81160;SDS011;70637;48.514;14.500;2023-06-22T12:18:53;11.95;;;4.53;;
81160;SDS011;70637;48.514;14.500;2023-06-22T12:21:18;13.82;;;4.90;;
81160;SDS011;70637;48.514;14.500;2023-06-22T12:23:44;15.15;;;4.97;;
81160;SDS011;70637;48.514;14.500;2023-06-22T12:26:10;14.48;;;5.20;;
81160;SDS011;70637;48.514;14.500;2023-06-22T12:28:35;16.27;;;4.85;;
81160;SDS011;70637;48.514;14.500;2023-06-22T12:31:01;17.15;;;4.88;;
81160;SDS011;70637;48.514;14.500;2023-06-22T12:33:26;12.75;;;4.47;;
81160;SDS011;70637;48.514;14.500;2023-06-22T12:35:53;12.73;;;4.72;;
81160;SDS011;70637;48.514;14.500;2023-06-22T12:38:18;13.38;;;4.93;;
81160;SDS011;70637;48.514;14.500;2023-06-22T12:40:44;12.88;;;4.47;;
81160;SDS011;70637;48.514;14.500;2023-06-22T12:43:13;15.38;;;4.78;;
81160;SDS011;70637;48.514;14.500;2023-06-22T12:45:39;12.80;;;4.72;;
81160;SDS011;70637;48.514;14.500;2023-06-22T12:48:05;13.27;;;4.32;;
81160;SDS011;70637;48.514;14.500;2023-06-22T12:50:33;12.50;;;5.28;;
81160;SDS011;70637;48.514;14.500;2023-06-22T12:52:59;15.27;;;5.47;;
81160;SDS011;70637;48.514;14.500;2023-06-22T12:55:27;12.85;;;4.95;;
81160;SDS011;70637;48.514;14.500;2023-06-22T12:57:52;14.60;;;5.30;;
81160;SDS011;70637;48.514;14.500;2023-06-22T13:00:18;12.93;;;4.82;;
81160;SDS011;70637;48.514;14.500;2023-06-22T13:02:44;16.10;;;4.85;;
81160;SDS011;70637;48.514;14.500;2023-06-22T13:05:10;15.77;;;5.15;;
81160;SDS011;70637;48.514;14.500;2023-06-22T13:07:36;15.65;;;5.18;;
81160;SDS011;70637;48.514;14.500;2023-06-22T13:10:02;17.30;;;4.85;;
81160;SDS011;70637;48.514;14.500;2023-06-22T13:12:28;13.90;;;5.18;;
81160;SDS011;70637;48.514;14.500;2023-06-22T13:14:53;15.13;;;5.20;;
81160;SDS011;70637;48.514;14.500;2023-06-22T13:17:19;15.45;;;5.18;;
81160;SDS011;70637;48.514;14.500;2023-06-22T13:19:45;14.88;;;5.57;;
81160;SDS011;70637;48.514;14.500;2023-06-22T13:22:30;16.10;;;5.15;;
81160;SDS011;70637;48.514;14.500;2023-06-22T13:25:05;11.93;;;5.05;;
81160;SDS011;70637;48.514;14.500;2023-06-22T13:27:32;12.48;;;4.80;;
81160;SDS011;70637;48.514;14.500;2023-06-22T13:29:57;14.75;;;5.35;;
81160;SDS011;70637;48.514;14.500;2023-06-22T13:32:23;17.23;;;5.15;;
81160;SDS011;70637;48.514;14.500;2023-06-22T13:34:49;20.58;;;4.93;;
81160;SDS011;70637;48.514;14.500;2023-06-22T13:37:14;12.27;;;4.78;;
81160;SDS011;70637;48.514;14.500;2023-06-22T13:39:40;15.20;;;4.82;;
81160;SDS011;70637;48.514;14.500;2023-06-22T13:42:06;15.65;;;4.90;;
81160;SDS011;70637;48.514;14.500;2023-06-22T13:44:32;12.88;;;4.60;;
81160;SDS011;70637;48.514;14.500;2023-06-22T13:46:58;15.40;;;4.78;;
81160;SDS011;70637;48.514;14.500;2023-06-22T13:49:23;13.45;;;4.88;;
81160;SDS011;70637;48.514;14.500;2023-06-22T13:51:49;12.10;;;4.57;;
81160;SDS011;70637;48.514;14.500;2023-06-22T13:54:15;19.50;;;5.57;;
81160;SDS011;70637;48.514;14.500;2023-06-22T13:56:41;12.00;;;4.75;;
81160;SDS011;70637;48.514;14.500;2023-06-22T13:59:07;12.63;;;4.78;;
81160;SDS011;70637;48.514;14.500;2023-06-22T14:01:34;13.10;;;5.18;;
81160;SDS011;70637;48.514;14.500;2023-06-22T14:04:00;14.05;;;5.45;;
81160;SDS011;70637;48.514;14.500;2023-06-22T14:06:27;14.85;;;5.50;;
81160;SDS011;70637;48.514;14.500;2023-06-22T14:08:52;15.02;;;5.10;;
81160;SDS011;70637;48.514;14.500;2023-06-22T14:11:18;15.93;;;5.25;;
81160;SDS011;70637;48.514;14.500;2023-06-22T14:13:44;16.40;;;4.97;;
81160;SDS011;70637;48.514;14.500;2023-06-22T14:16:09;13.82;;;4.95;;
81160;SDS011;70637;48.514;14.500;2023-06-22T14:18:35;16.65;;;4.70;;
81160;SDS011;70637;48.514;14.500;2023-06-22T14:21:01;14.82;;;5.00;;
81160;SDS011;70637;48.514;14.500;2023-06-22T14:23:26;14.07;;;4.57;;
81160;SDS011;70637;48.514;14.500;2023-06-22T14:25:52;13.00;;;4.90;;
81160;SDS011;70637;48.514;14.500;2023-06-22T14:28:18;16.08;;;5.40;;
81160;SDS011;70637;48.514;14.500;2023-06-22T14:30:44;16.90;;;5.18;;
81160;SDS011;70637;48.514;14.500;2023-06-22T14:33:10;15.75;;;5.00;;
81160;SDS011;70637;48.514;14.500;2023-06-22T14:35:36;14.05;;;4.95;;
81160;SDS011;70637;48.514;14.500;2023-06-22T14:38:02;16.05;;;4.90;;